Terminal Aerodrome Forecast
Issued by NWS Burlington, VT

Home | Current Version | Previous Version | Text Only | Print | Product List | Glossary On
Versions: 1 2 3 4 5 6 7 8 9 10 11 12
000
FTUS41 KBTV 311130
TAFBTV
TAF
KBTV 311130Z 3112/0112 19008KT P6SM SCT060
     FM311400 21010G17KT P6SM BKN050
     FM311800 28010G18KT P6SM SCT040
     FM312300 31005KT P6SM SCT040
     FM010600 VRB03KT P6SM SKC=

USA.gov is the U.S. government's official web portal to all federal, state and local government web resources and services.